Pagrindinis puslapis
METAR-TAF:

METAR-TAF

Oro uostai :

Mineralnye Vody, Rusija

platuma: 44-14N, ilguma: 043-04E, Aukštis: 314 m

Dabartinis oras

Ataskaita buvo paskelbta 33 minutes, ne 16:30 UTC
Vėjas 6 kt iš Vakarų
Temperatūra -4°C
Drėgmė 74%
Slėgis 1027 hPa
Matomumas 10 km arba daugiau

METAR: URMM 221630Z 28003MPS 9999 NSC M04/M08 Q1027 R12/420149 NOSIG RMK QFE742/0989

Laikas: 21:03 (17:03 UTC)

Prognozė

Ataskaita buvo paskelbta 3 valandos ir 3 minutes, ne 14:00 UTC
Prognozė galioja nuo 22 metu 15 UTC su 23 metu 15 UTC
Vėjas 6 kt iš Rytų su gūsio iki 16 kt
Matomumas 10 km arba daugiau
Su prošvaistėmis ne aukštis 2000 ft
Laikinai
nuo 22 metu 15 UTC su 23 metu 09 UTC
Vėjas 2 kt nuo kintamojo kryptimis

TAF: URMM 221400Z 2215/2315 10003G08MPS 9999 BKN020 TX06/2312Z TNM10/2303Z TEMPO 2215/2309 VRB01MPS

Orai ataskaitas ir orų prognozės (METAR, TAF).

turimą stotys yra geltonos ir raudonos taškus žemėlapyje.

Perkelti pele per norėdami pamatyti stoties vardą.

Tada spustelėkite, norėdami matyti oro stebėjimo ir prognozės.

Norėdami pakeisti žemėlapį: spustelėkite ant žalios mygtukų su juodo kryžiaus žemyn,; žalią mygtuką su brūkšneliu, jei norite nutolinti; arba žalių rodyklių gretimoms žemėlapius.


METAR-TAF: